sensor_id;sensor_type;location;lat;lon;timestamp;pressure;altitude;pressure_sealevel;temperature
22286;BMP180;11311;52.192;20.900;2023-07-08T18:47:51;100552.31;;;26.47
22286;BMP180;11311;52.192;20.900;2023-07-08T19:07:14;100554.31;;;26.50
22286;BMP180;11311;52.192;20.900;2023-07-08T19:09:43;100561.88;;;25.80
22286;BMP180;11311;52.192;20.900;2023-07-08T19:12:12;100566.78;;;25.09
22286;BMP180;11311;52.192;20.900;2023-07-08T19:14:41;100560.78;;;24.33
22286;BMP180;11311;52.192;20.900;2023-07-08T19:17:10;100559.97;;;23.66
22286;BMP180;11311;52.192;20.900;2023-07-08T19:19:38;100566.56;;;23.14
22286;BMP180;11311;52.192;20.900;2023-07-08T19:22:09;100569.53;;;22.78
22286;BMP180;11311;52.192;20.900;2023-07-08T19:24:44;100574.41;;;22.50
22286;BMP180;11311;52.192;20.900;2023-07-08T19:27:18;100567.03;;;22.25
22286;BMP180;11311;52.192;20.900;2023-07-08T19:29:48;100574.56;;;22.06
22286;BMP180;11311;52.192;20.900;2023-07-08T19:32:16;100580.66;;;21.89
22286;BMP180;11311;52.192;20.900;2023-07-08T19:34:46;100571.56;;;21.77
22286;BMP180;11311;52.192;20.900;2023-07-08T19:39:23;100578.56;;;24.56
22286;BMP180;11311;52.192;20.900;2023-07-08T19:41:52;100576.09;;;24.46
22286;BMP180;11311;52.192;20.900;2023-07-08T19:44:24;100573.03;;;24.39
22286;BMP180;11311;52.192;20.900;2023-07-08T19:46:54;100571.34;;;24.29
22286;BMP180;11311;52.192;20.900;2023-07-08T19:49:23;100577.78;;;24.19
22286;BMP180;11311;52.192;20.900;2023-07-08T19:51:52;100571.50;;;24.10
22286;BMP180;11311;52.192;20.900;2023-07-08T19:54:22;100575.94;;;24.06
22286;BMP180;11311;52.192;20.900;2023-07-08T19:56:51;100578.25;;;23.99
22286;BMP180;11311;52.192;20.900;2023-07-08T19:59:20;100576.25;;;23.91
22286;BMP180;11311;52.192;20.900;2023-07-08T20:01:50;100579.16;;;23.81
22286;BMP180;11311;52.192;20.900;2023-07-08T20:04:19;100582.25;;;23.75
22286;BMP180;11311;52.192;20.900;2023-07-08T20:06:48;100579.44;;;23.66
22286;BMP180;11311;52.192;20.900;2023-07-08T20:09:18;100588.75;;;23.60
22286;BMP180;11311;52.192;20.900;2023-07-08T20:11:48;100585.69;;;23.53
22286;BMP180;11311;52.192;20.900;2023-07-08T20:14:17;100591.47;;;23.46
22286;BMP180;11311;52.192;20.900;2023-07-08T20:16:45;100582.66;;;23.41
22286;BMP180;11311;52.192;20.900;2023-07-08T20:19:18;100586.56;;;23.35
22286;BMP180;11311;52.192;20.900;2023-07-08T20:21:48;100593.63;;;23.31
22286;BMP180;11311;52.192;20.900;2023-07-08T20:24:17;100589.50;;;23.20
22286;BMP180;11311;52.192;20.900;2023-07-08T20:26:48;100591.59;;;23.09
22286;BMP180;11311;52.192;20.900;2023-07-08T20:29:18;100591.00;;;22.99
22286;BMP180;11311;52.192;20.900;2023-07-08T20:31:47;100588.94;;;22.91
22286;BMP180;11311;52.192;20.900;2023-07-08T20:34:16;100595.25;;;22.81
22286;BMP180;11311;52.192;20.900;2023-07-08T20:36:46;100601.84;;;22.75
22286;BMP180;11311;52.192;20.900;2023-07-08T20:39:16;100593.81;;;22.70
22286;BMP180;11311;52.192;20.900;2023-07-08T20:41:50;100596.91;;;22.63
22286;BMP180;11311;52.192;20.900;2023-07-08T20:44:21;100600.19;;;22.60
22286;BMP180;11311;52.192;20.900;2023-07-08T20:46:52;100604.78;;;22.60
22286;BMP180;11311;52.192;20.900;2023-07-08T20:49:22;100601.66;;;22.53
22286;BMP180;11311;52.192;20.900;2023-07-08T20:51:51;100598.75;;;22.49
22286;BMP180;11311;52.192;20.900;2023-07-08T20:54:20;100600.69;;;22.44
22286;BMP180;11311;52.192;20.900;2023-07-08T20:56:50;100605.03;;;22.40
22286;BMP180;11311;52.192;20.900;2023-07-08T20:59:19;100608.63;;;22.35
22286;BMP180;11311;52.192;20.900;2023-07-08T21:01:52;100606.81;;;22.31
22286;BMP180;11311;52.192;20.900;2023-07-08T21:04:23;100608.16;;;22.28
22286;BMP180;11311;52.192;20.900;2023-07-08T21:06:52;100614.94;;;22.26
22286;BMP180;11311;52.192;20.900;2023-07-08T21:09:22;100613.09;;;22.21
22286;BMP180;11311;52.192;20.900;2023-07-08T21:11:54;100609.94;;;22.19
22286;BMP180;11311;52.192;20.900;2023-07-08T21:14:23;100618.06;;;22.14
22286;BMP180;11311;52.192;20.900;2023-07-08T21:16:52;100621.81;;;22.13
22286;BMP180;11311;52.192;20.900;2023-07-08T21:19:21;100621.38;;;22.06
22286;BMP180;11311;52.192;20.900;2023-07-08T21:21:50;100631.69;;;21.99
22286;BMP180;11311;52.192;20.900;2023-07-08T21:24:20;100623.97;;;21.92
22286;BMP180;11311;52.192;20.900;2023-07-08T21:26:50;100631.00;;;21.88
22286;BMP180;11311;52.192;20.900;2023-07-08T21:29:20;100630.75;;;21.85
22286;BMP180;11311;52.192;20.900;2023-07-08T21:31:49;100632.94;;;21.83
22286;BMP180;11311;52.192;20.900;2023-07-08T21:34:18;100638.81;;;21.85
22286;BMP180;11311;52.192;20.900;2023-07-08T21:36:47;100639.91;;;21.84
22286;BMP180;11311;52.192;20.900;2023-07-08T21:39:20;100636.19;;;21.80
22286;BMP180;11311;52.192;20.900;2023-07-08T21:41:51;100634.56;;;21.79
22286;BMP180;11311;52.192;20.900;2023-07-08T21:44:21;100643.22;;;21.76
22286;BMP180;11311;52.192;20.900;2023-07-08T21:46:50;100635.44;;;21.74
22286;BMP180;11311;52.192;20.900;2023-07-08T21:49:20;100631.44;;;21.72
22286;BMP180;11311;52.192;20.900;2023-07-08T21:51:49;100638.97;;;21.70
22286;BMP180;11311;52.192;20.900;2023-07-08T21:54:18;100635.56;;;21.64
22286;BMP180;11311;52.192;20.900;2023-07-08T21:56:47;100639.88;;;21.60
22286;BMP180;11311;52.192;20.900;2023-07-08T21:59:17;100635.34;;;21.56
22286;BMP180;11311;52.192;20.900;2023-07-08T22:01:47;100639.44;;;21.53
22286;BMP180;11311;52.192;20.900;2023-07-08T22:04:20;100640.22;;;21.54
22286;BMP180;11311;52.192;20.900;2023-07-08T22:06:53;100639.72;;;21.52
22286;BMP180;11311;52.192;20.900;2023-07-08T22:09:26;100646.16;;;21.51
22286;BMP180;11311;52.192;20.900;2023-07-08T22:11:56;100640.78;;;21.51
22286;BMP180;11311;52.192;20.900;2023-07-08T22:14:25;100641.59;;;21.51
22286;BMP180;11311;52.192;20.900;2023-07-08T22:16:56;100645.13;;;21.47
22286;BMP180;11311;52.192;20.900;2023-07-08T22:19:37;100641.38;;;21.42
22286;BMP180;11311;52.192;20.900;2023-07-08T22:22:09;100646.81;;;21.37
22286;BMP180;11311;52.192;20.900;2023-07-08T22:24:38;100636.13;;;21.32
22286;BMP180;11311;52.192;20.900;2023-07-08T22:27:08;100635.34;;;21.27
22286;BMP180;11311;52.192;20.900;2023-07-08T22:29:37;100640.47;;;21.23
22286;BMP180;11311;52.192;20.900;2023-07-08T22:32:09;100638.41;;;21.15
22286;BMP180;11311;52.192;20.900;2023-07-08T22:34:37;100632.56;;;21.08
22286;BMP180;11311;52.192;20.900;2023-07-08T22:37:07;100642.81;;;21.01
22286;BMP180;11311;52.192;20.900;2023-07-08T22:39:39;100640.72;;;20.93
22286;BMP180;11311;52.192;20.900;2023-07-08T22:42:09;100635.38;;;20.88
22286;BMP180;11311;52.192;20.900;2023-07-08T22:44:39;100639.16;;;20.82
22286;BMP180;11311;52.192;20.900;2023-07-08T22:47:10;100634.94;;;20.76
22286;BMP180;11311;52.192;20.900;2023-07-08T22:49:40;100633.88;;;20.72
22286;BMP180;11311;52.192;20.900;2023-07-08T22:52:16;100634.97;;;20.66
22286;BMP180;11311;52.192;20.900;2023-07-08T22:54:47;100630.75;;;20.60
22286;BMP180;11311;52.192;20.900;2023-07-08T22:57:15;100629.69;;;20.56
22286;BMP180;11311;52.192;20.900;2023-07-08T22:59:44;100632.91;;;20.53
22286;BMP180;11311;52.192;20.900;2023-07-08T23:02:14;100634.03;;;20.47
22286;BMP180;11311;52.192;20.900;2023-07-08T23:04:43;100638.59;;;20.41
22286;BMP180;11311;52.192;20.900;2023-07-08T23:07:13;100631.91;;;20.39
22286;BMP180;11311;52.192;20.900;2023-07-08T23:09:45;100638.91;;;20.30
22286;BMP180;11311;52.192;20.900;2023-07-08T23:12:14;100636.25;;;20.25
22286;BMP180;11311;52.192;20.900;2023-07-08T23:14:43;100636.28;;;20.20
22286;BMP180;11311;52.192;20.900;2023-07-08T23:17:12;100638.94;;;20.15
22286;BMP180;11311;52.192;20.900;2023-07-08T23:19:42;100629.31;;;20.08
22286;BMP180;11311;52.192;20.900;2023-07-08T23:22:17;100635.78;;;20.08
22286;BMP180;11311;52.192;20.900;2023-07-08T23:24:47;100631.47;;;20.06
22286;BMP180;11311;52.192;20.900;2023-07-08T23:27:19;100635.28;;;20.00
22286;BMP180;11311;52.192;20.900;2023-07-08T23:29:49;100624.56;;;19.95
22286;BMP180;11311;52.192;20.900;2023-07-08T23:32:17;100629.41;;;19.88
22286;BMP180;11311;52.192;20.900;2023-07-08T23:34:49;100633.16;;;19.82
22286;BMP180;11311;52.192;20.900;2023-07-08T23:37:18;100633.19;;;19.77
22286;BMP180;11311;52.192;20.900;2023-07-08T23:39:51;100636.09;;;19.76
22286;BMP180;11311;52.192;20.900;2023-07-08T23:42:20;100638.00;;;19.75
22286;BMP180;11311;52.192;20.900;2023-07-08T23:44:49;100632.09;;;19.73
22286;BMP180;11311;52.192;20.900;2023-07-08T23:47:21;100633.72;;;19.74
22286;BMP180;11311;52.192;20.900;2023-07-08T23:49:52;100636.41;;;19.69
22286;BMP180;11311;52.192;20.900;2023-07-08T23:52:21;100638.03;;;19.65
22286;BMP180;11311;52.192;20.900;2023-07-08T23:54:50;100633.19;;;19.57
22286;BMP180;11311;52.192;20.900;2023-07-08T23:57:20;100634.81;;;19.53
22286;BMP180;11311;52.192;20.900;2023-07-08T23:59:51;100636.41;;;19.49
